sensor_id;sensor_type;location;lat;lon;timestamp;P1;durP1;ratioP1;P2;durP2;ratioP2
72674;SDS011;60752;53.962;9.614;2023-04-15T00:09:00;6.97;;;3.03;;
72674;SDS011;60752;53.962;9.614;2023-04-15T00:39:02;7.03;;;2.83;;
72674;SDS011;60752;53.962;9.614;2023-04-15T01:09:04;7.67;;;3.43;;
72674;SDS011;60752;53.962;9.614;2023-04-15T01:39:06;8.37;;;4.10;;
72674;SDS011;60752;53.962;9.614;2023-04-15T02:09:08;8.70;;;3.83;;
72674;SDS011;60752;53.962;9.614;2023-04-15T02:39:10;7.50;;;3.17;;
72674;SDS011;60752;53.962;9.614;2023-04-15T03:09:12;8.73;;;3.10;;
72674;SDS011;60752;53.962;9.614;2023-04-15T03:39:14;10.77;;;4.33;;
72674;SDS011;60752;53.962;9.614;2023-04-15T04:09:15;11.87;;;5.03;;
72674;SDS011;60752;53.962;9.614;2023-04-15T04:39:17;16.30;;;6.33;;
72674;SDS011;60752;53.962;9.614;2023-04-15T05:09:19;19.07;;;7.93;;
72674;SDS011;60752;53.962;9.614;2023-04-15T05:39:21;18.17;;;7.33;;
72674;SDS011;60752;53.962;9.614;2023-04-15T06:09:22;17.67;;;7.20;;
72674;SDS011;60752;53.962;9.614;2023-04-15T06:39:24;20.83;;;8.37;;
72674;SDS011;60752;53.962;9.614;2023-04-15T07:09:26;25.30;;;11.30;;
72674;SDS011;60752;53.962;9.614;2023-04-15T07:39:28;27.23;;;12.33;;
72674;SDS011;60752;53.962;9.614;2023-04-15T08:09:30;31.17;;;13.03;;
72674;SDS011;60752;53.962;9.614;2023-04-15T08:39:31;26.70;;;12.67;;
72674;SDS011;60752;53.962;9.614;2023-04-15T09:09:33;29.50;;;13.90;;
72674;SDS011;60752;53.962;9.614;2023-04-15T09:39:48;32.97;;;12.33;;
72674;SDS011;60752;53.962;9.614;2023-04-15T10:09:50;28.97;;;13.13;;
72674;SDS011;60752;53.962;9.614;2023-04-15T10:39:53;26.70;;;13.23;;
72674;SDS011;60752;53.962;9.614;2023-04-15T11:09:55;23.53;;;12.23;;
72674;SDS011;60752;53.962;9.614;2023-04-15T11:39:56;18.20;;;10.60;;
72674;SDS011;60752;53.962;9.614;2023-04-15T12:09:58;17.37;;;8.53;;
72674;SDS011;60752;53.962;9.614;2023-04-15T12:40:00;15.63;;;8.77;;
72674;SDS011;60752;53.962;9.614;2023-04-15T13:10:02;13.70;;;6.83;;
72674;SDS011;60752;53.962;9.614;2023-04-15T13:40:04;17.40;;;9.93;;
72674;SDS011;60752;53.962;9.614;2023-04-15T14:10:07;25.40;;;10.37;;
72674;SDS011;60752;53.962;9.614;2023-04-15T14:40:09;20.97;;;9.50;;
72674;SDS011;60752;53.962;9.614;2023-04-15T15:10:11;17.20;;;9.47;;
72674;SDS011;60752;53.962;9.614;2023-04-15T15:40:13;17.73;;;9.00;;
72674;SDS011;60752;53.962;9.614;2023-04-15T16:10:15;16.10;;;9.13;;
72674;SDS011;60752;53.962;9.614;2023-04-15T16:40:17;21.43;;;12.23;;
72674;SDS011;60752;53.962;9.614;2023-04-15T17:10:19;17.30;;;9.47;;
72674;SDS011;60752;53.962;9.614;2023-04-15T17:40:21;16.17;;;9.57;;
72674;SDS011;60752;53.962;9.614;2023-04-15T18:10:23;16.17;;;8.33;;
72674;SDS011;60752;53.962;9.614;2023-04-15T18:40:25;18.43;;;8.30;;
72674;SDS011;60752;53.962;9.614;2023-04-15T19:10:26;16.40;;;8.73;;
72674;SDS011;60752;53.962;9.614;2023-04-15T19:40:28;15.43;;;8.30;;
72674;SDS011;60752;53.962;9.614;2023-04-15T20:10:30;18.53;;;9.43;;
72674;SDS011;60752;53.962;9.614;2023-04-15T20:40:32;20.13;;;9.40;;
72674;SDS011;60752;53.962;9.614;2023-04-15T21:10:34;19.50;;;9.30;;
72674;SDS011;60752;53.962;9.614;2023-04-15T21:40:36;17.40;;;8.57;;
72674;SDS011;60752;53.962;9.614;2023-04-15T22:10:38;17.10;;;8.50;;
72674;SDS011;60752;53.962;9.614;2023-04-15T22:40:39;18.13;;;8.07;;
72674;SDS011;60752;53.962;9.614;2023-04-15T23:10:45;16.30;;;8.20;;
72674;SDS011;60752;53.962;9.614;2023-04-15T23:40:47;17.13;;;8.03;;
